sensor_id;sensor_type;location;lat;lon;timestamp;temperature;humidity
10419;DHT22;5256;48.728;9.140;2022-09-28T00:01:34;6.90;99.90
10419;DHT22;5256;48.728;9.140;2022-09-28T00:04:00;6.90;99.90
10419;DHT22;5256;48.728;9.140;2022-09-28T00:06:27;7.00;99.90
10419;DHT22;5256;48.728;9.140;2022-09-28T00:08:53;7.00;99.90
10419;DHT22;5256;48.728;9.140;2022-09-28T00:11:21;7.00;99.90
10419;DHT22;5256;48.728;9.140;2022-09-28T00:13:51;7.00;99.90
10419;DHT22;5256;48.728;9.140;2022-09-28T00:16:19;7.00;99.90
10419;DHT22;5256;48.728;9.140;2022-09-28T00:18:45;7.00;99.90
10419;DHT22;5256;48.728;9.140;2022-09-28T00:21:17;7.00;99.90
10419;DHT22;5256;48.728;9.140;2022-09-28T00:23:44;7.10;99.90
10419;DHT22;5256;48.728;9.140;2022-09-28T00:26:30;7.10;99.90
10419;DHT22;5256;48.728;9.140;2022-09-28T00:28:58;7.10;99.90
10419;DHT22;5256;48.728;9.140;2022-09-28T00:31:29;7.10;99.90
10419;DHT22;5256;48.728;9.140;2022-09-28T00:33:57;7.10;99.90
10419;DHT22;5256;48.728;9.140;2022-09-28T00:36:25;7.20;99.90
10419;DHT22;5256;48.728;9.140;2022-09-28T00:38:55;7.20;99.90
10419;DHT22;5256;48.728;9.140;2022-09-28T00:41:21;7.30;99.90
10419;DHT22;5256;48.728;9.140;2022-09-28T00:43:47;7.30;99.90
10419;DHT22;5256;48.728;9.140;2022-09-28T00:48:58;7.30;99.90
10419;DHT22;5256;48.728;9.140;2022-09-28T00:51:27;7.40;99.90
10419;DHT22;5256;48.728;9.140;2022-09-28T00:53:54;7.40;99.90
10419;DHT22;5256;48.728;9.140;2022-09-28T00:56:24;7.40;99.90
10419;DHT22;5256;48.728;9.140;2022-09-28T00:58:51;7.40;99.90
10419;DHT22;5256;48.728;9.140;2022-09-28T01:01:18;7.40;99.90
10419;DHT22;5256;48.728;9.140;2022-09-28T01:03:44;7.50;99.90
10419;DHT22;5256;48.728;9.140;2022-09-28T01:06:23;7.50;99.90
10419;DHT22;5256;48.728;9.140;2022-09-28T01:08:55;7.60;99.90
10419;DHT22;5256;48.728;9.140;2022-09-28T01:11:23;7.70;99.90
10419;DHT22;5256;48.728;9.140;2022-09-28T01:13:51;7.70;99.90
10419;DHT22;5256;48.728;9.140;2022-09-28T01:16:29;7.60;99.90
10419;DHT22;5256;48.728;9.140;2022-09-28T01:24:38;7.80;99.90
10419;DHT22;5256;48.728;9.140;2022-09-28T01:27:23;7.80;99.90
10419;DHT22;5256;48.728;9.140;2022-09-28T01:30:08;7.80;99.90
10419;DHT22;5256;48.728;9.140;2022-09-28T01:32:42;7.80;99.90
10419;DHT22;5256;48.728;9.140;2022-09-28T01:35:20;7.90;99.90
10419;DHT22;5256;48.728;9.140;2022-09-28T01:38:20;8.00;99.90
10419;DHT22;5256;48.728;9.140;2022-09-28T01:40:47;8.00;99.90
10419;DHT22;5256;48.728;9.140;2022-09-28T01:43:25;8.00;99.90
10419;DHT22;5256;48.728;9.140;2022-09-28T01:45:55;8.00;99.90
10419;DHT22;5256;48.728;9.140;2022-09-28T01:48:28;8.10;99.90
10419;DHT22;5256;48.728;9.140;2022-09-28T01:50:58;8.10;99.90
10419;DHT22;5256;48.728;9.140;2022-09-28T01:53:31;8.10;99.90
10419;DHT22;5256;48.728;9.140;2022-09-28T01:56:04;8.10;99.90
10419;DHT22;5256;48.728;9.140;2022-09-28T02:01:15;8.20;99.90
10419;DHT22;5256;48.728;9.140;2022-09-28T02:03:48;8.20;99.90
10419;DHT22;5256;48.728;9.140;2022-09-28T02:06:21;8.20;99.90
10419;DHT22;5256;48.728;9.140;2022-09-28T02:08:56;8.20;99.90
10419;DHT22;5256;48.728;9.140;2022-09-28T02:11:23;8.20;99.90
10419;DHT22;5256;48.728;9.140;2022-09-28T02:16:24;8.20;99.90
10419;DHT22;5256;48.728;9.140;2022-09-28T02:18:55;8.20;99.90
10419;DHT22;5256;48.728;9.140;2022-09-28T02:23:54;8.30;99.90
10419;DHT22;5256;48.728;9.140;2022-09-28T02:26:23;8.30;99.90
10419;DHT22;5256;48.728;9.140;2022-09-28T02:28:51;8.30;99.90
10419;DHT22;5256;48.728;9.140;2022-09-28T02:31:17;8.30;99.90
10419;DHT22;5256;48.728;9.140;2022-09-28T02:33:43;8.30;99.90
10419;DHT22;5256;48.728;9.140;2022-09-28T02:36:09;8.30;99.90
10419;DHT22;5256;48.728;9.140;2022-09-28T02:38:36;8.30;99.90
10419;DHT22;5256;48.728;9.140;2022-09-28T02:43:48;8.30;99.90
10419;DHT22;5256;48.728;9.140;2022-09-28T02:46:42;8.30;99.90
10419;DHT22;5256;48.728;9.140;2022-09-28T02:49:36;8.30;99.90
10419;DHT22;5256;48.728;9.140;2022-09-28T02:55:05;8.40;99.90
10419;DHT22;5256;48.728;9.140;2022-09-28T03:00:21;8.50;99.90
10419;DHT22;5256;48.728;9.140;2022-09-28T03:03:11;8.40;99.90
10419;DHT22;5256;48.728;9.140;2022-09-28T03:05:57;8.40;99.90
10419;DHT22;5256;48.728;9.140;2022-09-28T03:08:33;8.50;99.90
10419;DHT22;5256;48.728;9.140;2022-09-28T03:11:06;8.50;99.90
10419;DHT22;5256;48.728;9.140;2022-09-28T03:13:34;8.40;99.90
10419;DHT22;5256;48.728;9.140;2022-09-28T03:16:14;8.50;99.90
10419;DHT22;5256;48.728;9.140;2022-09-28T03:18:40;8.40;99.90
10419;DHT22;5256;48.728;9.140;2022-09-28T03:21:06;8.40;99.90
10419;DHT22;5256;48.728;9.140;2022-09-28T03:23:32;8.40;99.90
10419;DHT22;5256;48.728;9.140;2022-09-28T03:25:58;8.40;99.90
10419;DHT22;5256;48.728;9.140;2022-09-28T03:28:24;8.40;99.90
10419;DHT22;5256;48.728;9.140;2022-09-28T03:30:50;8.40;99.90
10419;DHT22;5256;48.728;9.140;2022-09-28T03:33:15;8.50;99.90
10419;DHT22;5256;48.728;9.140;2022-09-28T03:35:44;8.50;99.90
10419;DHT22;5256;48.728;9.140;2022-09-28T03:38:10;8.50;99.90
10419;DHT22;5256;48.728;9.140;2022-09-28T03:40:35;8.50;99.90
10419;DHT22;5256;48.728;9.140;2022-09-28T03:43:01;8.50;99.90
10419;DHT22;5256;48.728;9.140;2022-09-28T03:45:26;8.50;99.90
10419;DHT22;5256;48.728;9.140;2022-09-28T03:47:52;8.50;99.90
10419;DHT22;5256;48.728;9.140;2022-09-28T03:50:17;8.50;99.90
10419;DHT22;5256;48.728;9.140;2022-09-28T03:52:43;8.50;99.90
10419;DHT22;5256;48.728;9.140;2022-09-28T03:55:09;8.50;99.90
10419;DHT22;5256;48.728;9.140;2022-09-28T03:57:35;8.50;99.90
10419;DHT22;5256;48.728;9.140;2022-09-28T04:00:02;8.50;99.90
10419;DHT22;5256;48.728;9.140;2022-09-28T04:02:29;8.50;99.90
10419;DHT22;5256;48.728;9.140;2022-09-28T04:04:55;8.50;99.90
10419;DHT22;5256;48.728;9.140;2022-09-28T04:07:21;8.50;99.90
10419;DHT22;5256;48.728;9.140;2022-09-28T04:09:47;8.50;99.90
10419;DHT22;5256;48.728;9.140;2022-09-28T04:12:12;8.50;99.90
10419;DHT22;5256;48.728;9.140;2022-09-28T04:14:38;8.50;99.90
10419;DHT22;5256;48.728;9.140;2022-09-28T04:17:03;8.40;99.90
10419;DHT22;5256;48.728;9.140;2022-09-28T04:19:30;8.30;99.90
10419;DHT22;5256;48.728;9.140;2022-09-28T04:21:56;8.20;99.90
10419;DHT22;5256;48.728;9.140;2022-09-28T04:24:22;8.10;99.90
10419;DHT22;5256;48.728;9.140;2022-09-28T04:26:47;8.10;99.90
10419;DHT22;5256;48.728;9.140;2022-09-28T04:29:13;8.10;99.90
10419;DHT22;5256;48.728;9.140;2022-09-28T04:31:50;8.00;99.90
10419;DHT22;5256;48.728;9.140;2022-09-28T04:34:21;8.00;99.90
10419;DHT22;5256;48.728;9.140;2022-09-28T04:36:47;8.00;99.90
10419;DHT22;5256;48.728;9.140;2022-09-28T04:39:14;8.00;99.90
10419;DHT22;5256;48.728;9.140;2022-09-28T04:41:41;8.00;99.90
10419;DHT22;5256;48.728;9.140;2022-09-28T04:44:07;7.90;99.90
10419;DHT22;5256;48.728;9.140;2022-09-28T04:46:33;7.90;99.90
10419;DHT22;5256;48.728;9.140;2022-09-28T04:48:59;7.90;99.90
10419;DHT22;5256;48.728;9.140;2022-09-28T04:51:24;7.90;99.90
10419;DHT22;5256;48.728;9.140;2022-09-28T04:53:50;7.90;99.90
10419;DHT22;5256;48.728;9.140;2022-09-28T04:56:17;7.90;99.90
10419;DHT22;5256;48.728;9.140;2022-09-28T04:58:43;7.90;99.90
10419;DHT22;5256;48.728;9.140;2022-09-28T05:01:14;7.90;99.90
10419;DHT22;5256;48.728;9.140;2022-09-28T05:03:40;7.80;99.90
10419;DHT22;5256;48.728;9.140;2022-09-28T05:06:06;7.80;99.90
10419;DHT22;5256;48.728;9.140;2022-09-28T05:08:32;7.80;99.90
10419;DHT22;5256;48.728;9.140;2022-09-28T05:11:01;7.80;99.90
10419;DHT22;5256;48.728;9.140;2022-09-28T05:13:29;7.80;99.90
10419;DHT22;5256;48.728;9.140;2022-09-28T05:15:56;7.80;99.90
10419;DHT22;5256;48.728;9.140;2022-09-28T05:18:22;7.80;99.90
10419;DHT22;5256;48.728;9.140;2022-09-28T05:20:47;7.80;99.90
10419;DHT22;5256;48.728;9.140;2022-09-28T05:23:14;7.80;99.90
10419;DHT22;5256;48.728;9.140;2022-09-28T05:25:43;7.80;99.90
10419;DHT22;5256;48.728;9.140;2022-09-28T05:28:10;7.80;99.90
10419;DHT22;5256;48.728;9.140;2022-09-28T05:30:38;7.80;99.90
10419;DHT22;5256;48.728;9.140;2022-09-28T05:33:04;7.80;99.90
10419;DHT22;5256;48.728;9.140;2022-09-28T05:35:30;7.80;99.90
10419;DHT22;5256;48.728;9.140;2022-09-28T05:37:57;7.80;99.90
10419;DHT22;5256;48.728;9.140;2022-09-28T05:40:27;7.80;99.90
10419;DHT22;5256;48.728;9.140;2022-09-28T05:42:53;7.80;99.90
10419;DHT22;5256;48.728;9.140;2022-09-28T05:45:22;7.80;99.90
10419;DHT22;5256;48.728;9.140;2022-09-28T05:47:47;7.70;99.90
10419;DHT22;5256;48.728;9.140;2022-09-28T05:50:13;7.70;99.90
10419;DHT22;5256;48.728;9.140;2022-09-28T05:52:40;7.80;99.90
10419;DHT22;5256;48.728;9.140;2022-09-28T05:55:06;7.70;99.90
10419;DHT22;5256;48.728;9.140;2022-09-28T05:57:32;7.80;99.90
10419;DHT22;5256;48.728;9.140;2022-09-28T05:59:58;7.80;99.90
10419;DHT22;5256;48.728;9.140;2022-09-28T06:02:24;7.80;99.90
10419;DHT22;5256;48.728;9.140;2022-09-28T06:04:49;7.80;99.90
10419;DHT22;5256;48.728;9.140;2022-09-28T06:07:16;7.80;99.90
10419;DHT22;5256;48.728;9.140;2022-09-28T06:09:42;7.80;99.90
10419;DHT22;5256;48.728;9.140;2022-09-28T06:12:08;7.90;99.90
10419;DHT22;5256;48.728;9.140;2022-09-28T06:14:34;7.90;99.90
10419;DHT22;5256;48.728;9.140;2022-09-28T06:16:59;7.90;99.90
10419;DHT22;5256;48.728;9.140;2022-09-28T06:19:25;7.80;99.90
10419;DHT22;5256;48.728;9.140;2022-09-28T06:21:51;7.90;99.90
10419;DHT22;5256;48.728;9.140;2022-09-28T06:24:16;7.90;99.90
10419;DHT22;5256;48.728;9.140;2022-09-28T06:26:42;7.90;99.90
10419;DHT22;5256;48.728;9.140;2022-09-28T06:29:13;7.90;99.90
10419;DHT22;5256;48.728;9.140;2022-09-28T06:31:43;7.90;99.90
10419;DHT22;5256;48.728;9.140;2022-09-28T06:34:10;8.00;99.90
10419;DHT22;5256;48.728;9.140;2022-09-28T06:36:37;8.00;99.90
10419;DHT22;5256;48.728;9.140;2022-09-28T06:39:02;8.00;99.90
10419;DHT22;5256;48.728;9.140;2022-09-28T06:41:28;8.10;99.90
10419;DHT22;5256;48.728;9.140;2022-09-28T06:43:53;8.10;99.90
10419;DHT22;5256;48.728;9.140;2022-09-28T06:46:19;8.10;99.90
10419;DHT22;5256;48.728;9.140;2022-09-28T06:48:45;8.20;99.90
10419;DHT22;5256;48.728;9.140;2022-09-28T06:51:11;8.20;99.90
10419;DHT22;5256;48.728;9.140;2022-09-28T06:53:36;8.30;99.90
10419;DHT22;5256;48.728;9.140;2022-09-28T06:56:02;8.30;99.90
10419;DHT22;5256;48.728;9.140;2022-09-28T06:58:27;8.40;99.90
10419;DHT22;5256;48.728;9.140;2022-09-28T07:01:04;8.50;99.90
10419;DHT22;5256;48.728;9.140;2022-09-28T07:03:30;8.50;99.90
10419;DHT22;5256;48.728;9.140;2022-09-28T07:05:55;8.50;99.90
10419;DHT22;5256;48.728;9.140;2022-09-28T07:08:23;8.50;99.90
10419;DHT22;5256;48.728;9.140;2022-09-28T07:10:51;8.50;99.90
10419;DHT22;5256;48.728;9.140;2022-09-28T07:13:26;8.40;99.90
10419;DHT22;5256;48.728;9.140;2022-09-28T07:15:55;8.40;99.90
10419;DHT22;5256;48.728;9.140;2022-09-28T07:18:21;8.40;99.90
10419;DHT22;5256;48.728;9.140;2022-09-28T07:20:48;8.30;99.90
10419;DHT22;5256;48.728;9.140;2022-09-28T07:23:14;8.40;99.90
10419;DHT22;5256;48.728;9.140;2022-09-28T07:25:40;8.30;99.90
10419;DHT22;5256;48.728;9.140;2022-09-28T07:28:10;8.40;99.90
10419;DHT22;5256;48.728;9.140;2022-09-28T07:30:35;8.40;99.90
10419;DHT22;5256;48.728;9.140;2022-09-28T07:33:02;8.40;99.90
10419;DHT22;5256;48.728;9.140;2022-09-28T07:35:28;8.60;99.90
10419;DHT22;5256;48.728;9.140;2022-09-28T07:38:03;8.60;99.90
10419;DHT22;5256;48.728;9.140;2022-09-28T07:40:29;8.70;99.90
10419;DHT22;5256;48.728;9.140;2022-09-28T07:43:14;8.70;99.90
10419;DHT22;5256;48.728;9.140;2022-09-28T07:45:45;8.70;99.90
10419;DHT22;5256;48.728;9.140;2022-09-28T07:48:10;8.70;99.90
10419;DHT22;5256;48.728;9.140;2022-09-28T07:50:36;8.70;99.90
10419;DHT22;5256;48.728;9.140;2022-09-28T07:53:01;8.70;99.90
10419;DHT22;5256;48.728;9.140;2022-09-28T07:55:27;8.70;99.90
10419;DHT22;5256;48.728;9.140;2022-09-28T07:57:56;8.80;99.90
10419;DHT22;5256;48.728;9.140;2022-09-28T08:00:24;8.80;99.90
10419;DHT22;5256;48.728;9.140;2022-09-28T08:02:49;8.90;99.90
10419;DHT22;5256;48.728;9.140;2022-09-28T08:05:15;9.00;99.90
10419;DHT22;5256;48.728;9.140;2022-09-28T08:07:42;9.10;99.90
10419;DHT22;5256;48.728;9.140;2022-09-28T08:10:07;9.20;99.90
10419;DHT22;5256;48.728;9.140;2022-09-28T08:12:33;9.20;99.90
10419;DHT22;5256;48.728;9.140;2022-09-28T08:15:00;9.40;99.90
10419;DHT22;5256;48.728;9.140;2022-09-28T08:17:26;9.50;99.90
10419;DHT22;5256;48.728;9.140;2022-09-28T08:19:52;9.70;99.90
10419;DHT22;5256;48.728;9.140;2022-09-28T08:22:35;9.70;99.90
10419;DHT22;5256;48.728;9.140;2022-09-28T08:25:01;9.70;99.90
10419;DHT22;5256;48.728;9.140;2022-09-28T08:27:27;9.60;99.90
10419;DHT22;5256;48.728;9.140;2022-09-28T08:29:52;9.60;99.90
10419;DHT22;5256;48.728;9.140;2022-09-28T08:32:26;9.60;99.90
10419;DHT22;5256;48.728;9.140;2022-09-28T08:34:56;9.70;99.90
10419;DHT22;5256;48.728;9.140;2022-09-28T08:37:22;9.80;99.90
10419;DHT22;5256;48.728;9.140;2022-09-28T08:39:47;9.90;99.90
10419;DHT22;5256;48.728;9.140;2022-09-28T08:42:32;10.00;99.90
10419;DHT22;5256;48.728;9.140;2022-09-28T08:45:09;10.10;99.90
10419;DHT22;5256;48.728;9.140;2022-09-28T08:47:47;10.30;99.90
10419;DHT22;5256;48.728;9.140;2022-09-28T08:50:35;10.30;99.90
10419;DHT22;5256;48.728;9.140;2022-09-28T08:56:08;10.20;99.90
10419;DHT22;5256;48.728;9.140;2022-09-28T08:58:38;10.20;99.90
10419;DHT22;5256;48.728;9.140;2022-09-28T09:01:07;10.30;99.90
10419;DHT22;5256;48.728;9.140;2022-09-28T09:03:42;10.40;99.90
10419;DHT22;5256;48.728;9.140;2022-09-28T09:14:34;10.80;99.90
10419;DHT22;5256;48.728;9.140;2022-09-28T09:22:58;11.00;99.90
10419;DHT22;5256;48.728;9.140;2022-09-28T09:31:11;11.00;99.90
10419;DHT22;5256;48.728;9.140;2022-09-28T09:37:05;11.00;99.90
10419;DHT22;5256;48.728;9.140;2022-09-28T09:42:46;11.00;99.90
10419;DHT22;5256;48.728;9.140;2022-09-28T09:45:53;11.00;99.90
10419;DHT22;5256;48.728;9.140;2022-09-28T09:49:00;10.60;99.90
10419;DHT22;5256;48.728;9.140;2022-09-28T09:51:45;10.60;99.90
10419;DHT22;5256;48.728;9.140;2022-09-28T09:54:29;10.60;99.90
10419;DHT22;5256;48.728;9.140;2022-09-28T09:57:04;10.80;99.90
10419;DHT22;5256;48.728;9.140;2022-09-28T09:59:35;11.00;99.90
10419;DHT22;5256;48.728;9.140;2022-09-28T10:02:09;11.10;99.90
10419;DHT22;5256;48.728;9.140;2022-09-28T10:04:40;11.30;99.90
10419;DHT22;5256;48.728;9.140;2022-09-28T10:07:15;11.40;99.90
10419;DHT22;5256;48.728;9.140;2022-09-28T10:09:45;11.40;99.90
10419;DHT22;5256;48.728;9.140;2022-09-28T10:12:20;11.40;99.90
10419;DHT22;5256;48.728;9.140;2022-09-28T10:14:47;11.40;99.90
10419;DHT22;5256;48.728;9.140;2022-09-28T10:17:17;11.40;99.90
10419;DHT22;5256;48.728;9.140;2022-09-28T10:19:44;11.30;99.90
10419;DHT22;5256;48.728;9.140;2022-09-28T10:22:14;11.20;99.90
10419;DHT22;5256;48.728;9.140;2022-09-28T10:24:44;11.30;99.90
10419;DHT22;5256;48.728;9.140;2022-09-28T10:27:14;11.30;99.90
10419;DHT22;5256;48.728;9.140;2022-09-28T10:29:49;11.40;99.90
10419;DHT22;5256;48.728;9.140;2022-09-28T10:34:46;11.50;99.90
10419;DHT22;5256;48.728;9.140;2022-09-28T10:37:12;11.60;99.90
10419;DHT22;5256;48.728;9.140;2022-09-28T10:39:54;11.70;99.90
10419;DHT22;5256;48.728;9.140;2022-09-28T10:42:24;11.80;99.90
10419;DHT22;5256;48.728;9.140;2022-09-28T10:47:23;12.00;99.90
10419;DHT22;5256;48.728;9.140;2022-09-28T10:49:51;12.00;99.90
10419;DHT22;5256;48.728;9.140;2022-09-28T10:52:35;12.00;99.90
10419;DHT22;5256;48.728;9.140;2022-09-28T10:55:21;12.20;99.90
10419;DHT22;5256;48.728;9.140;2022-09-28T10:57:48;12.20;99.90
10419;DHT22;5256;48.728;9.140;2022-09-28T11:00:33;12.30;99.90
10419;DHT22;5256;48.728;9.140;2022-09-28T11:03:00;12.40;99.90
10419;DHT22;5256;48.728;9.140;2022-09-28T11:05:27;12.40;99.90
10419;DHT22;5256;48.728;9.140;2022-09-28T11:07:52;12.30;99.90
10419;DHT22;5256;48.728;9.140;2022-09-28T11:10:28;12.30;99.90
10419;DHT22;5256;48.728;9.140;2022-09-28T11:12:54;12.20;99.90
10419;DHT22;5256;48.728;9.140;2022-09-28T11:15:24;12.20;99.90
10419;DHT22;5256;48.728;9.140;2022-09-28T11:17:51;12.30;99.90
10419;DHT22;5256;48.728;9.140;2022-09-28T11:22:53;12.50;99.90
10419;DHT22;5256;48.728;9.140;2022-09-28T11:25:25;12.50;99.90
10419;DHT22;5256;48.728;9.140;2022-09-28T11:30:37;12.20;99.90
10419;DHT22;5256;48.728;9.140;2022-09-28T11:33:14;12.20;99.90
10419;DHT22;5256;48.728;9.140;2022-09-28T11:49:56;12.40;99.90
10419;DHT22;5256;48.728;9.140;2022-09-28T11:52:42;12.50;99.90
10419;DHT22;5256;48.728;9.140;2022-09-28T11:55:13;12.70;99.90
10419;DHT22;5256;48.728;9.140;2022-09-28T11:57:45;12.70;99.90
10419;DHT22;5256;48.728;9.140;2022-09-28T12:00:19;12.80;99.90
10419;DHT22;5256;48.728;9.140;2022-09-28T12:03:10;12.70;99.90
10419;DHT22;5256;48.728;9.140;2022-09-28T12:05:50;12.50;99.90
10419;DHT22;5256;48.728;9.140;2022-09-28T12:08:25;12.50;99.90
10419;DHT22;5256;48.728;9.140;2022-09-28T12:11:06;12.50;99.90
10419;DHT22;5256;48.728;9.140;2022-09-28T12:13:37;12.50;99.90
10419;DHT22;5256;48.728;9.140;2022-09-28T12:16:08;12.50;99.90
10419;DHT22;5256;48.728;9.140;2022-09-28T12:19:03;12.50;99.90
10419;DHT22;5256;48.728;9.140;2022-09-28T12:21:36;12.60;99.90
10419;DHT22;5256;48.728;9.140;2022-09-28T12:24:15;12.80;99.90
10419;DHT22;5256;48.728;9.140;2022-09-28T12:26:47;13.10;99.90
10419;DHT22;5256;48.728;9.140;2022-09-28T12:29:21;13.20;99.90
10419;DHT22;5256;48.728;9.140;2022-09-28T12:34:41;13.30;99.90
10419;DHT22;5256;48.728;9.140;2022-09-28T12:40:34;13.00;99.90
10419;DHT22;5256;48.728;9.140;2022-09-28T12:51:38;12.80;99.90
10419;DHT22;5256;48.728;9.140;2022-09-28T12:59:56;12.80;99.90
10419;DHT22;5256;48.728;9.140;2022-09-28T13:10:39;12.80;99.90
10419;DHT22;5256;48.728;9.140;2022-09-28T13:13:17;13.00;99.90
10419;DHT22;5256;48.728;9.140;2022-09-28T13:21:08;12.80;99.90
10419;DHT22;5256;48.728;9.140;2022-09-28T13:23:45;12.80;99.90
10419;DHT22;5256;48.728;9.140;2022-09-28T13:26:31;12.90;99.90
10419;DHT22;5256;48.728;9.140;2022-09-28T13:29:02;13.00;99.90
10419;DHT22;5256;48.728;9.140;2022-09-28T13:31:31;13.00;99.90
10419;DHT22;5256;48.728;9.140;2022-09-28T13:34:02;13.00;99.90
10419;DHT22;5256;48.728;9.140;2022-09-28T13:38:55;13.10;99.90
10419;DHT22;5256;48.728;9.140;2022-09-28T13:47:13;13.10;99.90
10419;DHT22;5256;48.728;9.140;2022-09-28T13:55:17;13.10;99.90
10419;DHT22;5256;48.728;9.140;2022-09-28T13:58:01;13.00;99.90
10419;DHT22;5256;48.728;9.140;2022-09-28T14:00:48;12.80;99.90
10419;DHT22;5256;48.728;9.140;2022-09-28T14:03:26;12.80;99.90
10419;DHT22;5256;48.728;9.140;2022-09-28T14:06:22;12.80;99.90
10419;DHT22;5256;48.728;9.140;2022-09-28T14:14:04;12.90;99.90
10419;DHT22;5256;48.728;9.140;2022-09-28T14:16:32;13.00;99.90
10419;DHT22;5256;48.728;9.140;2022-09-28T14:19:08;13.00;99.90
10419;DHT22;5256;48.728;9.140;2022-09-28T14:32:37;12.90;99.90
10419;DHT22;5256;48.728;9.140;2022-09-28T14:37:51;12.90;99.90
10419;DHT22;5256;48.728;9.140;2022-09-28T14:41:02;13.00;99.90
10419;DHT22;5256;48.728;9.140;2022-09-28T14:48:54;12.70;99.90
10419;DHT22;5256;48.728;9.140;2022-09-28T14:53:52;12.70;99.90
10419;DHT22;5256;48.728;9.140;2022-09-28T14:56:19;12.80;99.90
10419;DHT22;5256;48.728;9.140;2022-09-28T14:58:48;12.80;99.90
10419;DHT22;5256;48.728;9.140;2022-09-28T15:01:18;12.80;99.90
10419;DHT22;5256;48.728;9.140;2022-09-28T15:03:52;12.80;99.90
10419;DHT22;5256;48.728;9.140;2022-09-28T15:06:22;12.80;99.90
10419;DHT22;5256;48.728;9.140;2022-09-28T15:08:47;12.80;99.90
10419;DHT22;5256;48.728;9.140;2022-09-28T15:11:17;12.90;99.90
10419;DHT22;5256;48.728;9.140;2022-09-28T15:13:44;13.00;99.90
10419;DHT22;5256;48.728;9.140;2022-09-28T15:16:13;13.10;99.90
10419;DHT22;5256;48.728;9.140;2022-09-28T15:18:47;13.10;99.90
10419;DHT22;5256;48.728;9.140;2022-09-28T15:21:13;13.20;99.90
10419;DHT22;5256;48.728;9.140;2022-09-28T15:23:42;13.20;99.90
10419;DHT22;5256;48.728;9.140;2022-09-28T15:26:25;13.20;99.90
10419;DHT22;5256;48.728;9.140;2022-09-28T15:28:53;13.40;99.90
10419;DHT22;5256;48.728;9.140;2022-09-28T15:31:24;13.30;99.90
10419;DHT22;5256;48.728;9.140;2022-09-28T15:33:51;13.20;99.90
10419;DHT22;5256;48.728;9.140;2022-09-28T15:36:42;12.90;99.90
10419;DHT22;5256;48.728;9.140;2022-09-28T15:39:24;12.80;99.90
10419;DHT22;5256;48.728;9.140;2022-09-28T15:41:52;12.60;99.90
10419;DHT22;5256;48.728;9.140;2022-09-28T15:44:28;12.60;99.90
10419;DHT22;5256;48.728;9.140;2022-09-28T15:47:15;12.50;99.90
10419;DHT22;5256;48.728;9.140;2022-09-28T15:50:03;12.40;99.90
10419;DHT22;5256;48.728;9.140;2022-09-28T15:55:02;12.10;99.90
10419;DHT22;5256;48.728;9.140;2022-09-28T15:57:33;12.00;99.90
10419;DHT22;5256;48.728;9.140;2022-09-28T16:00:01;12.00;99.90
10419;DHT22;5256;48.728;9.140;2022-09-28T16:02:27;11.90;99.90
10419;DHT22;5256;48.728;9.140;2022-09-28T16:05:00;11.90;99.90
10419;DHT22;5256;48.728;9.140;2022-09-28T16:12:45;11.60;99.90
10419;DHT22;5256;48.728;9.140;2022-09-28T16:15:29;11.50;99.90
10419;DHT22;5256;48.728;9.140;2022-09-28T16:17:58;11.60;99.90
10419;DHT22;5256;48.728;9.140;2022-09-28T16:20:30;11.50;99.90
10419;DHT22;5256;48.728;9.140;2022-09-28T16:23:20;11.30;99.90
10419;DHT22;5256;48.728;9.140;2022-09-28T16:25:50;11.20;99.90
10419;DHT22;5256;48.728;9.140;2022-09-28T16:33:51;11.00;99.90
10419;DHT22;5256;48.728;9.140;2022-09-28T16:36:18;11.00;99.90
10419;DHT22;5256;48.728;9.140;2022-09-28T16:38:46;10.90;99.90
10419;DHT22;5256;48.728;9.140;2022-09-28T16:41:13;10.80;99.90
10419;DHT22;5256;48.728;9.140;2022-09-28T16:43:40;10.80;99.90
10419;DHT22;5256;48.728;9.140;2022-09-28T16:46:09;10.70;99.90
10419;DHT22;5256;48.728;9.140;2022-09-28T16:48:43;10.60;99.90
10419;DHT22;5256;48.728;9.140;2022-09-28T16:51:19;10.60;99.90
10419;DHT22;5256;48.728;9.140;2022-09-28T16:53:45;10.50;99.90
10419;DHT22;5256;48.728;9.140;2022-09-28T16:56:34;10.40;99.90
10419;DHT22;5256;48.728;9.140;2022-09-28T16:59:00;10.30;99.90
10419;DHT22;5256;48.728;9.140;2022-09-28T17:01:26;10.20;99.90
10419;DHT22;5256;48.728;9.140;2022-09-28T17:03:55;10.20;99.90
10419;DHT22;5256;48.728;9.140;2022-09-28T17:06:21;10.00;99.90
10419;DHT22;5256;48.728;9.140;2022-09-28T17:08:51;9.90;99.90
10419;DHT22;5256;48.728;9.140;2022-09-28T17:11:20;9.70;99.90
10419;DHT22;5256;48.728;9.140;2022-09-28T17:13:46;9.60;99.90
10419;DHT22;5256;48.728;9.140;2022-09-28T17:16:21;9.40;99.90
10419;DHT22;5256;48.728;9.140;2022-09-28T17:18:47;9.10;99.90
10419;DHT22;5256;48.728;9.140;2022-09-28T17:21:18;8.90;99.90
10419;DHT22;5256;48.728;9.140;2022-09-28T17:23:45;8.70;99.90
10419;DHT22;5256;48.728;9.140;2022-09-28T17:26:24;8.50;99.90
10419;DHT22;5256;48.728;9.140;2022-09-28T17:28:56;8.50;99.90
10419;DHT22;5256;48.728;9.140;2022-09-28T17:31:27;8.40;99.90
10419;DHT22;5256;48.728;9.140;2022-09-28T17:33:52;8.40;99.90
10419;DHT22;5256;48.728;9.140;2022-09-28T17:36:19;8.40;99.90
10419;DHT22;5256;48.728;9.140;2022-09-28T17:38:46;8.30;99.90
10419;DHT22;5256;48.728;9.140;2022-09-28T17:41:17;8.10;99.90
10419;DHT22;5256;48.728;9.140;2022-09-28T17:43:43;8.10;99.90
10419;DHT22;5256;48.728;9.140;2022-09-28T17:46:33;8.00;99.90
10419;DHT22;5256;48.728;9.140;2022-09-28T17:49:01;8.00;99.90
10419;DHT22;5256;48.728;9.140;2022-09-28T17:51:35;8.10;99.90
10419;DHT22;5256;48.728;9.140;2022-09-28T17:54:02;8.00;99.90
10419;DHT22;5256;48.728;9.140;2022-09-28T17:56:29;8.10;99.90
10419;DHT22;5256;48.728;9.140;2022-09-28T17:58:58;7.90;99.90
10419;DHT22;5256;48.728;9.140;2022-09-28T18:01:24;7.70;99.90
10419;DHT22;5256;48.728;9.140;2022-09-28T18:03:50;7.70;99.90
10419;DHT22;5256;48.728;9.140;2022-09-28T18:06:16;7.70;99.90
10419;DHT22;5256;48.728;9.140;2022-09-28T18:08:47;7.70;99.90
10419;DHT22;5256;48.728;9.140;2022-09-28T18:11:12;7.60;99.90
10419;DHT22;5256;48.728;9.140;2022-09-28T18:13:38;7.40;99.90
10419;DHT22;5256;48.728;9.140;2022-09-28T18:16:04;7.30;99.90
10419;DHT22;5256;48.728;9.140;2022-09-28T18:18:30;7.20;99.90
10419;DHT22;5256;48.728;9.140;2022-09-28T18:20:59;7.20;99.90
10419;DHT22;5256;48.728;9.140;2022-09-28T18:23:25;7.10;99.90
10419;DHT22;5256;48.728;9.140;2022-09-28T18:25:50;7.00;99.90
10419;DHT22;5256;48.728;9.140;2022-09-28T18:28:16;7.00;99.90
10419;DHT22;5256;48.728;9.140;2022-09-28T18:30:43;7.00;99.90
10419;DHT22;5256;48.728;9.140;2022-09-28T18:33:10;6.90;99.90
10419;DHT22;5256;48.728;9.140;2022-09-28T18:35:36;7.00;99.90
10419;DHT22;5256;48.728;9.140;2022-09-28T18:38:05;6.90;99.90
10419;DHT22;5256;48.728;9.140;2022-09-28T18:40:34;6.90;99.90
10419;DHT22;5256;48.728;9.140;2022-09-28T18:43:01;6.90;99.90
10419;DHT22;5256;48.728;9.140;2022-09-28T18:45:27;7.00;99.90
10419;DHT22;5256;48.728;9.140;2022-09-28T18:47:53;7.10;99.90
10419;DHT22;5256;48.728;9.140;2022-09-28T18:50:18;7.20;99.90
10419;DHT22;5256;48.728;9.140;2022-09-28T18:52:44;7.30;99.90
10419;DHT22;5256;48.728;9.140;2022-09-28T18:55:11;7.40;99.90
10419;DHT22;5256;48.728;9.140;2022-09-28T18:57:38;7.40;99.90
10419;DHT22;5256;48.728;9.140;2022-09-28T19:00:06;7.50;99.90
10419;DHT22;5256;48.728;9.140;2022-09-28T19:02:32;7.60;99.90